Terminal Aerodrome Forecast
Issued by NWS

Home | Current Version | Previous Version | Text Only | Print | Product List | Glossary On
Versions: 1 2 3 4 5 6 7 8 9 10 11 12 13 14 15 16 17 18
000
FTUS46 KEKA 241141
TAFCEC
TAF
KCEC 241141Z 2412/2512 10005KT P6SM SCT040 BKN100
     FM241700 16008KT P6SM -DZ SCT025 BKN035 OVC060
     FM242100 13004KT 6SM -RA BR BKN025 OVC050
     FM250300 11004KT 6SM BR VCSH BKN007 OVC025
     FM250800 10003KT 4SM BR SCT007 BKN015=

USA.gov is the U.S. government's official web portal to all federal, state and local government web resources and services.